sensor_id;sensor_type;location;lat;lon;timestamp;temperature;humidity
30037;DHT22;36325;51.512;-0.382;2022-12-29T00:00:19;10.10;99.90
30037;DHT22;36325;51.512;-0.382;2022-12-29T00:02:47;10.10;99.90
30037;DHT22;36325;51.512;-0.382;2022-12-29T00:05:14;10.10;99.90
30037;DHT22;36325;51.512;-0.382;2022-12-29T00:07:41;10.20;99.90
30037;DHT22;36325;51.512;-0.382;2022-12-29T00:12:36;10.30;99.90
30037;DHT22;36325;51.512;-0.382;2022-12-29T00:15:21;10.30;99.90
30037;DHT22;36325;51.512;-0.382;2022-12-29T00:18:04;10.20;99.90
30037;DHT22;36325;51.512;-0.382;2022-12-29T00:20:34;10.20;99.90
30037;DHT22;36325;51.512;-0.382;2022-12-29T00:23:33;10.20;99.90
30037;DHT22;36325;51.512;-0.382;2022-12-29T00:26:19;10.20;99.90
30037;DHT22;36325;51.512;-0.382;2022-12-29T00:29:07;10.20;99.90
30037;DHT22;36325;51.512;-0.382;2022-12-29T00:32:01;10.30;99.90
30037;DHT22;36325;51.512;-0.382;2022-12-29T00:34:46;10.30;99.90
30037;DHT22;36325;51.512;-0.382;2022-12-29T00:40:20;10.30;99.90
30037;DHT22;36325;51.512;-0.382;2022-12-29T00:43:05;10.30;99.90
30037;DHT22;36325;51.512;-0.382;2022-12-29T00:45:53;10.40;99.90
30037;DHT22;36325;51.512;-0.382;2022-12-29T00:48:21;10.40;99.90
30037;DHT22;36325;51.512;-0.382;2022-12-29T00:51:08;10.40;99.90
30037;DHT22;36325;51.512;-0.382;2022-12-29T00:53:35;10.40;99.90
30037;DHT22;36325;51.512;-0.382;2022-12-29T00:56:02;10.40;99.90
30037;DHT22;36325;51.512;-0.382;2022-12-29T00:58:30;10.30;99.90
30037;DHT22;36325;51.512;-0.382;2022-12-29T01:01:04;10.30;99.90
30037;DHT22;36325;51.512;-0.382;2022-12-29T01:03:33;10.30;99.90
30037;DHT22;36325;51.512;-0.382;2022-12-29T01:06:03;10.20;99.90
30037;DHT22;36325;51.512;-0.382;2022-12-29T01:08:31;10.20;99.90
30037;DHT22;36325;51.512;-0.382;2022-12-29T01:11:17;10.20;99.90
30037;DHT22;36325;51.512;-0.382;2022-12-29T01:13:44;10.10;99.90
30037;DHT22;36325;51.512;-0.382;2022-12-29T01:16:11;10.10;99.90
30037;DHT22;36325;51.512;-0.382;2022-12-29T01:18:38;10.10;99.90
30037;DHT22;36325;51.512;-0.382;2022-12-29T01:21:06;10.10;99.90
30037;DHT22;36325;51.512;-0.382;2022-12-29T01:23:33;10.00;99.90
30037;DHT22;36325;51.512;-0.382;2022-12-29T01:26:14;10.10;99.90
30037;DHT22;36325;51.512;-0.382;2022-12-29T01:28:41;10.10;99.90
30037;DHT22;36325;51.512;-0.382;2022-12-29T01:31:09;10.00;99.90
30037;DHT22;36325;51.512;-0.382;2022-12-29T01:33:37;10.00;99.90
30037;DHT22;36325;51.512;-0.382;2022-12-29T01:36:07;9.90;99.90
30037;DHT22;36325;51.512;-0.382;2022-12-29T01:38:36;9.80;99.90
30037;DHT22;36325;51.512;-0.382;2022-12-29T01:41:04;9.80;99.90
30037;DHT22;36325;51.512;-0.382;2022-12-29T01:43:43;9.80;99.90
30037;DHT22;36325;51.512;-0.382;2022-12-29T01:46:38;9.60;99.90
30037;DHT22;36325;51.512;-0.382;2022-12-29T01:49:22;9.60;99.90
30037;DHT22;36325;51.512;-0.382;2022-12-29T01:51:56;9.50;99.90
30037;DHT22;36325;51.512;-0.382;2022-12-29T01:54:30;9.50;99.90
30037;DHT22;36325;51.512;-0.382;2022-12-29T01:57:01;9.40;99.90
30037;DHT22;36325;51.512;-0.382;2022-12-29T01:59:34;9.30;99.90
30037;DHT22;36325;51.512;-0.382;2022-12-29T02:02:01;9.30;99.90
30037;DHT22;36325;51.512;-0.382;2022-12-29T02:04:31;9.30;99.90
30037;DHT22;36325;51.512;-0.382;2022-12-29T02:07:05;8.70;99.90
30037;DHT22;36325;51.512;-0.382;2022-12-29T02:09:34;9.30;99.90
30037;DHT22;36325;51.512;-0.382;2022-12-29T02:12:02;9.30;99.90
30037;DHT22;36325;51.512;-0.382;2022-12-29T02:14:30;9.30;99.90
30037;DHT22;36325;51.512;-0.382;2022-12-29T02:34:17;12.80;99.90
30037;DHT22;36325;51.512;-0.382;2022-12-29T02:53:58;9.60;99.90
30037;DHT22;36325;51.512;-0.382;2022-12-29T02:56:43;9.60;99.90
30037;DHT22;36325;51.512;-0.382;2022-12-29T02:59:12;9.60;99.90
30037;DHT22;36325;51.512;-0.382;2022-12-29T03:10:41;9.80;99.90
30037;DHT22;36325;51.512;-0.382;2022-12-29T03:19:02;10.00;99.90
30037;DHT22;36325;51.512;-0.382;2022-12-29T03:21:41;10.00;99.90
30037;DHT22;36325;51.512;-0.382;2022-12-29T03:24:40;10.10;99.90
30037;DHT22;36325;51.512;-0.382;2022-12-29T03:27:10;10.10;99.90
30037;DHT22;36325;51.512;-0.382;2022-12-29T03:29:44;10.20;99.90
30037;DHT22;36325;51.512;-0.382;2022-12-29T03:32:15;10.20;99.90
30037;DHT22;36325;51.512;-0.382;2022-12-29T03:34:43;10.30;99.90
30037;DHT22;36325;51.512;-0.382;2022-12-29T03:37:16;10.30;99.90
30037;DHT22;36325;51.512;-0.382;2022-12-29T03:39:45;10.30;99.90
30037;DHT22;36325;51.512;-0.382;2022-12-29T03:42:15;10.30;99.90
30037;DHT22;36325;51.512;-0.382;2022-12-29T03:44:44;10.40;99.90
30037;DHT22;36325;51.512;-0.382;2022-12-29T03:47:14;10.40;99.90
30037;DHT22;36325;51.512;-0.382;2022-12-29T03:49:43;10.40;99.90
30037;DHT22;36325;51.512;-0.382;2022-12-29T03:52:11;10.40;99.90
30037;DHT22;36325;51.512;-0.382;2022-12-29T03:54:42;10.40;99.90
30037;DHT22;36325;51.512;-0.382;2022-12-29T03:57:11;10.40;99.90
30037;DHT22;36325;51.512;-0.382;2022-12-29T03:59:48;10.40;99.90
30037;DHT22;36325;51.512;-0.382;2022-12-29T04:02:17;10.40;99.90
30037;DHT22;36325;51.512;-0.382;2022-12-29T04:04:44;10.30;99.90
30037;DHT22;36325;51.512;-0.382;2022-12-29T04:07:12;10.20;99.90
30037;DHT22;36325;51.512;-0.382;2022-12-29T04:09:40;10.10;99.90
30037;DHT22;36325;51.512;-0.382;2022-12-29T04:14:38;9.90;99.90
30037;DHT22;36325;51.512;-0.382;2022-12-29T04:17:06;9.90;99.90
30037;DHT22;36325;51.512;-0.382;2022-12-29T04:22:01;9.90;99.90
30037;DHT22;36325;51.512;-0.382;2022-12-29T04:24:29;10.10;99.90
30037;DHT22;36325;51.512;-0.382;2022-12-29T04:26:56;10.10;99.90
30037;DHT22;36325;51.512;-0.382;2022-12-29T04:34:42;10.30;99.90
30037;DHT22;36325;51.512;-0.382;2022-12-29T04:37:09;10.30;99.90
30037;DHT22;36325;51.512;-0.382;2022-12-29T04:39:36;10.40;99.90
30037;DHT22;36325;51.512;-0.382;2022-12-29T04:42:06;10.40;99.90
30037;DHT22;36325;51.512;-0.382;2022-12-29T04:44:33;10.30;99.90
30037;DHT22;36325;51.512;-0.382;2022-12-29T04:47:12;10.40;99.90
30037;DHT22;36325;51.512;-0.382;2022-12-29T04:50:14;10.30;99.90
30037;DHT22;36325;51.512;-0.382;2022-12-29T04:52:54;10.40;99.90
30037;DHT22;36325;51.512;-0.382;2022-12-29T04:55:21;10.40;99.90
30037;DHT22;36325;51.512;-0.382;2022-12-29T04:57:49;10.30;99.90
30037;DHT22;36325;51.512;-0.382;2022-12-29T05:02:46;10.40;99.90
30037;DHT22;36325;51.512;-0.382;2022-12-29T05:05:27;10.40;99.90
30037;DHT22;36325;51.512;-0.382;2022-12-29T05:08:00;10.40;99.90
30037;DHT22;36325;51.512;-0.382;2022-12-29T05:10:27;10.50;99.90
30037;DHT22;36325;51.512;-0.382;2022-12-29T05:12:58;10.50;99.90
30037;DHT22;36325;51.512;-0.382;2022-12-29T05:20:21;10.40;99.90
30037;DHT22;36325;51.512;-0.382;2022-12-29T05:22:48;10.30;99.90
30037;DHT22;36325;51.512;-0.382;2022-12-29T05:25:15;10.40;99.90
30037;DHT22;36325;51.512;-0.382;2022-12-29T05:28:06;10.30;99.90
30037;DHT22;36325;51.512;-0.382;2022-12-29T05:33:21;10.30;99.90
30037;DHT22;36325;51.512;-0.382;2022-12-29T05:35:50;10.30;99.90
30037;DHT22;36325;51.512;-0.382;2022-12-29T05:38:18;10.30;99.90
30037;DHT22;36325;51.512;-0.382;2022-12-29T05:40:46;10.20;99.90
30037;DHT22;36325;51.512;-0.382;2022-12-29T05:43:42;10.00;99.90
30037;DHT22;36325;51.512;-0.382;2022-12-29T05:46:27;10.00;99.90
30037;DHT22;36325;51.512;-0.382;2022-12-29T05:49:09;9.90;99.90
30037;DHT22;36325;51.512;-0.382;2022-12-29T05:51:54;9.80;99.90
30037;DHT22;36325;51.512;-0.382;2022-12-29T05:54:22;9.60;99.90
30037;DHT22;36325;51.512;-0.382;2022-12-29T05:56:50;9.70;99.90
30037;DHT22;36325;51.512;-0.382;2022-12-29T06:01:46;9.50;99.90
30037;DHT22;36325;51.512;-0.382;2022-12-29T06:04:13;9.50;99.90
30037;DHT22;36325;51.512;-0.382;2022-12-29T06:06:40;9.40;99.90
30037;DHT22;36325;51.512;-0.382;2022-12-29T06:09:15;9.40;99.90
30037;DHT22;36325;51.512;-0.382;2022-12-29T06:11:42;9.30;99.90
30037;DHT22;36325;51.512;-0.382;2022-12-29T06:14:10;9.30;99.90
30037;DHT22;36325;51.512;-0.382;2022-12-29T06:16:38;6.50;99.90
30037;DHT22;36325;51.512;-0.382;2022-12-29T06:19:09;9.20;99.90
30037;DHT22;36325;51.512;-0.382;2022-12-29T06:24:05;9.10;99.90
30037;DHT22;36325;51.512;-0.382;2022-12-29T06:26:34;9.10;99.90
30037;DHT22;36325;51.512;-0.382;2022-12-29T06:29:01;9.10;99.90
30037;DHT22;36325;51.512;-0.382;2022-12-29T06:31:30;9.00;99.90
30037;DHT22;36325;51.512;-0.382;2022-12-29T06:33:57;9.00;99.90
30037;DHT22;36325;51.512;-0.382;2022-12-29T06:36:27;9.00;99.90
30037;DHT22;36325;51.512;-0.382;2022-12-29T06:38:54;8.90;99.90
30037;DHT22;36325;51.512;-0.382;2022-12-29T06:41:22;8.90;99.90
30037;DHT22;36325;51.512;-0.382;2022-12-29T06:44:14;8.90;99.90
30037;DHT22;36325;51.512;-0.382;2022-12-29T06:47:00;8.90;99.90
30037;DHT22;36325;51.512;-0.382;2022-12-29T06:51:54;8.90;99.90
30037;DHT22;36325;51.512;-0.382;2022-12-29T06:54:21;8.80;99.90
30037;DHT22;36325;51.512;-0.382;2022-12-29T06:56:48;8.80;99.90
30037;DHT22;36325;51.512;-0.382;2022-12-29T07:01:43;8.70;99.90
30037;DHT22;36325;51.512;-0.382;2022-12-29T07:04:10;8.80;99.90
30037;DHT22;36325;51.512;-0.382;2022-12-29T07:06:37;8.80;99.90
30037;DHT22;36325;51.512;-0.382;2022-12-29T07:09:05;8.80;99.90
30037;DHT22;36325;51.512;-0.382;2022-12-29T07:11:32;8.80;99.90
30037;DHT22;36325;51.512;-0.382;2022-12-29T07:16:27;8.70;99.90
30037;DHT22;36325;51.512;-0.382;2022-12-29T07:23:54;8.70;99.90
30037;DHT22;36325;51.512;-0.382;2022-12-29T07:26:21;8.70;99.90
30037;DHT22;36325;51.512;-0.382;2022-12-29T07:28:49;8.60;99.90
30037;DHT22;36325;51.512;-0.382;2022-12-29T07:31:18;8.60;99.90
30037;DHT22;36325;51.512;-0.382;2022-12-29T07:33:46;8.60;99.90
30037;DHT22;36325;51.512;-0.382;2022-12-29T07:36:15;8.60;99.90
30037;DHT22;36325;51.512;-0.382;2022-12-29T07:38:42;8.50;99.90
30037;DHT22;36325;51.512;-0.382;2022-12-29T07:41:10;9.60;99.90
30037;DHT22;36325;51.512;-0.382;2022-12-29T07:43:37;8.50;99.90
30037;DHT22;36325;51.512;-0.382;2022-12-29T07:46:22;8.50;99.90
30037;DHT22;36325;51.512;-0.382;2022-12-29T07:49:09;8.60;99.90
30037;DHT22;36325;51.512;-0.382;2022-12-29T07:51:36;8.50;99.90
30037;DHT22;36325;51.512;-0.382;2022-12-29T07:54:04;8.50;99.90
30037;DHT22;36325;51.512;-0.382;2022-12-29T07:56:31;8.50;99.90
30037;DHT22;36325;51.512;-0.382;2022-12-29T08:01:25;8.60;99.90
30037;DHT22;36325;51.512;-0.382;2022-12-29T08:03:53;8.60;99.90
30037;DHT22;36325;51.512;-0.382;2022-12-29T08:06:23;8.60;99.90
30037;DHT22;36325;51.512;-0.382;2022-12-29T08:08:50;8.60;99.90
30037;DHT22;36325;51.512;-0.382;2022-12-29T08:11:17;8.60;99.90
30037;DHT22;36325;51.512;-0.382;2022-12-29T08:13:44;8.60;99.90
30037;DHT22;36325;51.512;-0.382;2022-12-29T08:16:11;8.60;99.90
30037;DHT22;36325;51.512;-0.382;2022-12-29T08:18:39;11.30;99.90
30037;DHT22;36325;51.512;-0.382;2022-12-29T08:21:06;8.70;99.90
30037;DHT22;36325;51.512;-0.382;2022-12-29T08:23:33;8.70;99.90
30037;DHT22;36325;51.512;-0.382;2022-12-29T08:26:02;8.70;99.90
30037;DHT22;36325;51.512;-0.382;2022-12-29T08:28:30;8.70;99.90
30037;DHT22;36325;51.512;-0.382;2022-12-29T08:30:59;8.70;99.90
30037;DHT22;36325;51.512;-0.382;2022-12-29T08:33:27;8.80;99.90
30037;DHT22;36325;51.512;-0.382;2022-12-29T08:36:05;8.90;99.90
30037;DHT22;36325;51.512;-0.382;2022-12-29T08:38:33;9.00;99.90
30037;DHT22;36325;51.512;-0.382;2022-12-29T08:41:00;9.00;99.90
30037;DHT22;36325;51.512;-0.382;2022-12-29T08:45:58;9.00;99.90
30037;DHT22;36325;51.512;-0.382;2022-12-29T08:48:26;9.00;99.90
30037;DHT22;36325;51.512;-0.382;2022-12-29T08:50:54;9.10;99.90
30037;DHT22;36325;51.512;-0.382;2022-12-29T08:53:21;9.10;99.90
30037;DHT22;36325;51.512;-0.382;2022-12-29T08:55:56;9.20;99.90
30037;DHT22;36325;51.512;-0.382;2022-12-29T08:58:31;9.20;99.90
30037;DHT22;36325;51.512;-0.382;2022-12-29T09:00:59;9.30;99.90
30037;DHT22;36325;51.512;-0.382;2022-12-29T09:03:27;9.30;99.90
30037;DHT22;36325;51.512;-0.382;2022-12-29T09:06:15;9.30;99.90
30037;DHT22;36325;51.512;-0.382;2022-12-29T09:11:18;9.50;99.90
30037;DHT22;36325;51.512;-0.382;2022-12-29T09:13:45;9.60;99.90
30037;DHT22;36325;51.512;-0.382;2022-12-29T09:16:13;9.60;99.90
30037;DHT22;36325;51.512;-0.382;2022-12-29T09:18:40;9.70;99.90
30037;DHT22;36325;51.512;-0.382;2022-12-29T09:21:09;9.70;99.90
30037;DHT22;36325;51.512;-0.382;2022-12-29T09:23:37;9.70;99.90
30037;DHT22;36325;51.512;-0.382;2022-12-29T09:26:07;9.70;99.90
30037;DHT22;36325;51.512;-0.382;2022-12-29T09:28:35;9.70;99.90
30037;DHT22;36325;51.512;-0.382;2022-12-29T09:31:02;9.70;99.90
30037;DHT22;36325;51.512;-0.382;2022-12-29T09:33:32;9.70;99.90
30037;DHT22;36325;51.512;-0.382;2022-12-29T09:36:03;9.70;99.90
30037;DHT22;36325;51.512;-0.382;2022-12-29T09:38:30;9.60;99.90
30037;DHT22;36325;51.512;-0.382;2022-12-29T09:41:29;9.70;99.90
30037;DHT22;36325;51.512;-0.382;2022-12-29T09:44:03;9.70;99.90
30037;DHT22;36325;51.512;-0.382;2022-12-29T09:46:43;9.70;99.90
30037;DHT22;36325;51.512;-0.382;2022-12-29T09:49:44;9.70;99.90
30037;DHT22;36325;51.512;-0.382;2022-12-29T09:52:29;9.80;99.90
30037;DHT22;36325;51.512;-0.382;2022-12-29T09:55:15;10.00;99.90
30037;DHT22;36325;51.512;-0.382;2022-12-29T09:57:59;10.10;99.90
30037;DHT22;36325;51.512;-0.382;2022-12-29T10:01:23;10.40;99.90
30037;DHT22;36325;51.512;-0.382;2022-12-29T10:03:27;10.50;99.90
30037;DHT22;36325;51.512;-0.382;2022-12-29T10:06:09;10.60;99.90
30037;DHT22;36325;51.512;-0.382;2022-12-29T10:09:33;10.50;99.90
30037;DHT22;36325;51.512;-0.382;2022-12-29T10:17:10;10.30;99.90
30037;DHT22;36325;51.512;-0.382;2022-12-29T10:22:21;10.30;99.90
30037;DHT22;36325;51.512;-0.382;2022-12-29T10:24:53;10.20;99.90
30037;DHT22;36325;51.512;-0.382;2022-12-29T10:27:22;10.10;99.90
30037;DHT22;36325;51.512;-0.382;2022-12-29T10:29:55;10.00;99.90
30037;DHT22;36325;51.512;-0.382;2022-12-29T10:32:39;10.00;99.90
30037;DHT22;36325;51.512;-0.382;2022-12-29T10:38:05;9.90;99.90
30037;DHT22;36325;51.512;-0.382;2022-12-29T10:40:45;10.00;99.90
30037;DHT22;36325;51.512;-0.382;2022-12-29T10:43:38;10.10;99.90
30037;DHT22;36325;51.512;-0.382;2022-12-29T10:46:12;10.30;99.90
30037;DHT22;36325;51.512;-0.382;2022-12-29T10:48:40;10.60;99.90
30037;DHT22;36325;51.512;-0.382;2022-12-29T10:51:35;10.60;99.90
30037;DHT22;36325;51.512;-0.382;2022-12-29T10:54:23;10.90;99.90
30037;DHT22;36325;51.512;-0.382;2022-12-29T10:57:08;11.00;99.90
30037;DHT22;36325;51.512;-0.382;2022-12-29T10:59:37;11.40;99.90
30037;DHT22;36325;51.512;-0.382;2022-12-29T11:07:19;12.10;99.90
30037;DHT22;36325;51.512;-0.382;2022-12-29T11:09:52;12.20;99.90
30037;DHT22;36325;51.512;-0.382;2022-12-29T11:15:14;11.90;99.90
30037;DHT22;36325;51.512;-0.382;2022-12-29T11:17:49;11.50;99.90
30037;DHT22;36325;51.512;-0.382;2022-12-29T11:20:32;11.10;99.90
30037;DHT22;36325;51.512;-0.382;2022-12-29T11:23:00;11.00;99.90
30037;DHT22;36325;51.512;-0.382;2022-12-29T11:30:29;11.00;99.90
30037;DHT22;36325;51.512;-0.382;2022-12-29T11:32:58;10.90;99.90
30037;DHT22;36325;51.512;-0.382;2022-12-29T11:35:38;8.60;99.90
30037;DHT22;36325;51.512;-0.382;2022-12-29T11:38:20;10.90;99.90
30037;DHT22;36325;51.512;-0.382;2022-12-29T11:40:48;11.20;99.90
30037;DHT22;36325;51.512;-0.382;2022-12-29T11:43:34;11.20;99.90
30037;DHT22;36325;51.512;-0.382;2022-12-29T11:46:04;11.50;99.90
30037;DHT22;36325;51.512;-0.382;2022-12-29T11:48:38;11.40;99.90
30037;DHT22;36325;51.512;-0.382;2022-12-29T11:51:06;11.30;99.90
30037;DHT22;36325;51.512;-0.382;2022-12-29T11:53:37;11.70;99.90
30037;DHT22;36325;51.512;-0.382;2022-12-29T11:56:08;11.70;99.90
30037;DHT22;36325;51.512;-0.382;2022-12-29T11:58:37;11.60;99.90
30037;DHT22;36325;51.512;-0.382;2022-12-29T12:03:38;12.00;99.90
30037;DHT22;36325;51.512;-0.382;2022-12-29T12:06:11;11.90;99.90
30037;DHT22;36325;51.512;-0.382;2022-12-29T12:08:48;12.20;99.90
30037;DHT22;36325;51.512;-0.382;2022-12-29T12:11:28;12.60;99.90
30037;DHT22;36325;51.512;-0.382;2022-12-29T12:16:55;12.90;99.90
30037;DHT22;36325;51.512;-0.382;2022-12-29T12:25:37;14.30;99.90
30037;DHT22;36325;51.512;-0.382;2022-12-29T12:28:19;14.20;99.90
30037;DHT22;36325;51.512;-0.382;2022-12-29T12:30:51;13.90;99.90
30037;DHT22;36325;51.512;-0.382;2022-12-29T12:33:39;14.50;99.90
30037;DHT22;36325;51.512;-0.382;2022-12-29T12:41:47;15.40;99.90
30037;DHT22;36325;51.512;-0.382;2022-12-29T12:44:53;15.50;99.90
30037;DHT22;36325;51.512;-0.382;2022-12-29T12:50:18;14.40;99.90
30037;DHT22;36325;51.512;-0.382;2022-12-29T12:53:13;13.00;99.90
30037;DHT22;36325;51.512;-0.382;2022-12-29T12:55:59;13.00;99.90
30037;DHT22;36325;51.512;-0.382;2022-12-29T12:58:54;12.30;99.90
30037;DHT22;36325;51.512;-0.382;2022-12-29T13:01:38;11.70;99.90
30037;DHT22;36325;51.512;-0.382;2022-12-29T13:07:02;12.20;99.90
30037;DHT22;36325;51.512;-0.382;2022-12-29T13:10:19;12.70;99.90
30037;DHT22;36325;51.512;-0.382;2022-12-29T13:15:49;12.30;99.90
30037;DHT22;36325;51.512;-0.382;2022-12-29T13:18:45;12.70;99.90
30037;DHT22;36325;51.512;-0.382;2022-12-29T13:24:21;13.90;99.90
30037;DHT22;36325;51.512;-0.382;2022-12-29T13:26:54;13.30;99.90
30037;DHT22;36325;51.512;-0.382;2022-12-29T13:37:26;13.80;99.90
30037;DHT22;36325;51.512;-0.382;2022-12-29T13:40:02;13.10;99.90
30037;DHT22;36325;51.512;-0.382;2022-12-29T13:42:30;12.80;99.90
30037;DHT22;36325;51.512;-0.382;2022-12-29T13:45:02;12.40;99.90
30037;DHT22;36325;51.512;-0.382;2022-12-29T13:47:33;12.50;99.90
30037;DHT22;36325;51.512;-0.382;2022-12-29T13:50:03;13.80;99.90
30037;DHT22;36325;51.512;-0.382;2022-12-29T13:55:37;13.20;99.90
30037;DHT22;36325;51.512;-0.382;2022-12-29T14:00:54;14.20;99.90
30037;DHT22;36325;51.512;-0.382;2022-12-29T14:06:22;13.60;99.90
30037;DHT22;36325;51.512;-0.382;2022-12-29T14:08:53;15.30;99.90
30037;DHT22;36325;51.512;-0.382;2022-12-29T14:11:23;12.10;99.90
30037;DHT22;36325;51.512;-0.382;2022-12-29T14:13:58;11.90;99.90
30037;DHT22;36325;51.512;-0.382;2022-12-29T14:16:31;13.10;99.90
30037;DHT22;36325;51.512;-0.382;2022-12-29T14:19:26;11.70;99.90
30037;DHT22;36325;51.512;-0.382;2022-12-29T14:22:05;11.70;99.90
30037;DHT22;36325;51.512;-0.382;2022-12-29T14:27:51;11.80;99.90
30037;DHT22;36325;51.512;-0.382;2022-12-29T14:29:49;11.70;99.90
30037;DHT22;36325;51.512;-0.382;2022-12-29T14:34:54;11.20;99.90
30037;DHT22;36325;51.512;-0.382;2022-12-29T14:37:35;10.90;99.90
30037;DHT22;36325;51.512;-0.382;2022-12-29T14:40:19;10.90;99.90
30037;DHT22;36325;51.512;-0.382;2022-12-29T14:42:52;10.90;99.90
30037;DHT22;36325;51.512;-0.382;2022-12-29T14:47:51;10.60;99.90
30037;DHT22;36325;51.512;-0.382;2022-12-29T14:50:23;10.50;99.90
30037;DHT22;36325;51.512;-0.382;2022-12-29T14:52:55;10.40;99.90
30037;DHT22;36325;51.512;-0.382;2022-12-29T14:55:46;10.80;99.90
30037;DHT22;36325;51.512;-0.382;2022-12-29T14:59:05;10.90;99.90
30037;DHT22;36325;51.512;-0.382;2022-12-29T15:01:43;11.40;99.90
30037;DHT22;36325;51.512;-0.382;2022-12-29T15:04:20;11.40;99.90
30037;DHT22;36325;51.512;-0.382;2022-12-29T15:06:49;11.30;99.90
30037;DHT22;36325;51.512;-0.382;2022-12-29T15:09:24;10.80;99.90
30037;DHT22;36325;51.512;-0.382;2022-12-29T15:12:01;10.70;99.90
30037;DHT22;36325;51.512;-0.382;2022-12-29T15:16:58;10.30;99.90
30037;DHT22;36325;51.512;-0.382;2022-12-29T15:19:27;10.20;99.90
30037;DHT22;36325;51.512;-0.382;2022-12-29T15:21:55;10.00;99.90
30037;DHT22;36325;51.512;-0.382;2022-12-29T15:24:23;10.00;99.90
30037;DHT22;36325;51.512;-0.382;2022-12-29T15:26:52;9.90;99.90
30037;DHT22;36325;51.512;-0.382;2022-12-29T15:29:40;9.80;99.90
30037;DHT22;36325;51.512;-0.382;2022-12-29T15:32:23;9.50;99.90
30037;DHT22;36325;51.512;-0.382;2022-12-29T15:34:56;9.50;99.90
30037;DHT22;36325;51.512;-0.382;2022-12-29T15:37:34;9.40;99.90
30037;DHT22;36325;51.512;-0.382;2022-12-29T15:40:03;9.40;99.90
30037;DHT22;36325;51.512;-0.382;2022-12-29T15:42:55;9.40;99.90
30037;DHT22;36325;51.512;-0.382;2022-12-29T15:45:44;9.40;99.90
30037;DHT22;36325;51.512;-0.382;2022-12-29T15:48:19;9.40;99.90
30037;DHT22;36325;51.512;-0.382;2022-12-29T15:50:47;12.10;99.90
30037;DHT22;36325;51.512;-0.382;2022-12-29T15:53:27;9.30;99.90
30037;DHT22;36325;51.512;-0.382;2022-12-29T15:56:06;9.30;99.90
30037;DHT22;36325;51.512;-0.382;2022-12-29T15:58:44;9.20;99.90
30037;DHT22;36325;51.512;-0.382;2022-12-29T16:01:23;9.10;99.90
30037;DHT22;36325;51.512;-0.382;2022-12-29T16:03:52;9.10;99.90
30037;DHT22;36325;51.512;-0.382;2022-12-29T16:06:38;9.10;99.90
30037;DHT22;36325;51.512;-0.382;2022-12-29T16:11:55;9.00;99.90
30037;DHT22;36325;51.512;-0.382;2022-12-29T16:14:40;9.00;99.90
30037;DHT22;36325;51.512;-0.382;2022-12-29T16:17:13;8.90;99.90
30037;DHT22;36325;51.512;-0.382;2022-12-29T16:19:52;8.90;99.90
30037;DHT22;36325;51.512;-0.382;2022-12-29T16:22:42;8.90;99.90
30037;DHT22;36325;51.512;-0.382;2022-12-29T16:25:24;9.00;99.90
30037;DHT22;36325;51.512;-0.382;2022-12-29T16:27:52;9.00;99.90
30037;DHT22;36325;51.512;-0.382;2022-12-29T16:32:54;9.00;99.90
30037;DHT22;36325;51.512;-0.382;2022-12-29T16:38:18;8.90;99.90
30037;DHT22;36325;51.512;-0.382;2022-12-29T16:40:59;8.80;99.90
30037;DHT22;36325;51.512;-0.382;2022-12-29T16:43:34;8.80;99.90
30037;DHT22;36325;51.512;-0.382;2022-12-29T16:48:45;8.90;99.90
30037;DHT22;36325;51.512;-0.382;2022-12-29T16:51:17;8.80;99.90
30037;DHT22;36325;51.512;-0.382;2022-12-29T16:53:51;8.80;99.90
30037;DHT22;36325;51.512;-0.382;2022-12-29T16:56:21;8.70;99.90
30037;DHT22;36325;51.512;-0.382;2022-12-29T16:58:52;8.70;99.90
30037;DHT22;36325;51.512;-0.382;2022-12-29T17:01:22;8.70;99.90
30037;DHT22;36325;51.512;-0.382;2022-12-29T17:04:04;8.60;99.90
30037;DHT22;36325;51.512;-0.382;2022-12-29T17:06:32;8.50;99.90
30037;DHT22;36325;51.512;-0.382;2022-12-29T17:08:59;8.50;99.90
30037;DHT22;36325;51.512;-0.382;2022-12-29T17:11:29;8.40;99.90
30037;DHT22;36325;51.512;-0.382;2022-12-29T17:14:40;8.40;99.90
30037;DHT22;36325;51.512;-0.382;2022-12-29T17:17:20;8.30;99.90
30037;DHT22;36325;51.512;-0.382;2022-12-29T17:19:51;8.30;99.90
30037;DHT22;36325;51.512;-0.382;2022-12-29T17:22:24;8.30;99.90
30037;DHT22;36325;51.512;-0.382;2022-12-29T17:24:57;8.30;99.90
30037;DHT22;36325;51.512;-0.382;2022-12-29T17:29:54;8.20;99.90
30037;DHT22;36325;51.512;-0.382;2022-12-29T17:32:23;8.20;99.90
30037;DHT22;36325;51.512;-0.382;2022-12-29T17:34:50;8.10;99.90
30037;DHT22;36325;51.512;-0.382;2022-12-29T17:39:45;8.10;99.90
30037;DHT22;36325;51.512;-0.382;2022-12-29T17:42:12;8.00;99.90
30037;DHT22;36325;51.512;-0.382;2022-12-29T17:44:39;8.00;99.90
30037;DHT22;36325;51.512;-0.382;2022-12-29T17:47:10;8.00;99.90
30037;DHT22;36325;51.512;-0.382;2022-12-29T17:49:37;8.00;99.90
30037;DHT22;36325;51.512;-0.382;2022-12-29T17:52:04;8.00;99.90
30037;DHT22;36325;51.512;-0.382;2022-12-29T17:54:32;7.70;99.90
30037;DHT22;36325;51.512;-0.382;2022-12-29T17:57:00;8.00;99.90
30037;DHT22;36325;51.512;-0.382;2022-12-29T17:59:27;7.90;99.90
30037;DHT22;36325;51.512;-0.382;2022-12-29T18:06:49;7.80;99.90
30037;DHT22;36325;51.512;-0.382;2022-12-29T18:09:16;7.70;99.90
30037;DHT22;36325;51.512;-0.382;2022-12-29T18:11:44;7.70;99.90
30037;DHT22;36325;51.512;-0.382;2022-12-29T18:14:16;7.80;99.90
30037;DHT22;36325;51.512;-0.382;2022-12-29T18:16:43;7.70;99.90
30037;DHT22;36325;51.512;-0.382;2022-12-29T18:19:10;7.70;99.90
30037;DHT22;36325;51.512;-0.382;2022-12-29T18:21:38;7.70;99.90
30037;DHT22;36325;51.512;-0.382;2022-12-29T18:24:14;7.70;99.90
30037;DHT22;36325;51.512;-0.382;2022-12-29T18:26:41;7.60;99.90
30037;DHT22;36325;51.512;-0.382;2022-12-29T18:29:08;7.70;99.90
30037;DHT22;36325;51.512;-0.382;2022-12-29T18:31:36;7.60;99.90
30037;DHT22;36325;51.512;-0.382;2022-12-29T18:34:12;7.60;99.90
30037;DHT22;36325;51.512;-0.382;2022-12-29T18:36:39;7.60;99.90
30037;DHT22;36325;51.512;-0.382;2022-12-29T18:39:06;7.50;99.90
30037;DHT22;36325;51.512;-0.382;2022-12-29T18:41:34;7.50;99.90
30037;DHT22;36325;51.512;-0.382;2022-12-29T18:44:01;7.50;99.90
30037;DHT22;36325;51.512;-0.382;2022-12-29T18:46:28;7.40;99.90
30037;DHT22;36325;51.512;-0.382;2022-12-29T18:48:56;7.40;99.90
30037;DHT22;36325;51.512;-0.382;2022-12-29T18:51:24;7.40;99.90
30037;DHT22;36325;51.512;-0.382;2022-12-29T18:53:51;7.40;99.90
30037;DHT22;36325;51.512;-0.382;2022-12-29T18:56:21;7.30;99.90
30037;DHT22;36325;51.512;-0.382;2022-12-29T19:01:26;7.20;99.90
30037;DHT22;36325;51.512;-0.382;2022-12-29T19:03:54;7.20;99.90
30037;DHT22;36325;51.512;-0.382;2022-12-29T19:06:24;7.10;99.90
30037;DHT22;36325;51.512;-0.382;2022-12-29T19:08:51;7.10;99.90
30037;DHT22;36325;51.512;-0.382;2022-12-29T19:11:19;7.10;99.90
30037;DHT22;36325;51.512;-0.382;2022-12-29T19:13:46;7.10;99.90
30037;DHT22;36325;51.512;-0.382;2022-12-29T19:16:18;7.00;99.90
30037;DHT22;36325;51.512;-0.382;2022-12-29T19:18:47;7.00;99.90
30037;DHT22;36325;51.512;-0.382;2022-12-29T19:21:33;7.10;99.90
30037;DHT22;36325;51.512;-0.382;2022-12-29T19:24:00;7.00;99.90